Time;durP1;ratioP1;P1;durP2;ratioP2;P2;SDS_P1;SDS_P2;PMS_P1;PMS_P2;Temp;Humidity;BMP_temperature;BMP_pressure;BME280_temperature;BME280_humidity;BME280_pressure;Samples;Min_cycle;Max_cycle;Signal;HPM_P1;HPM_P2
2023/12/19 00:00:42;;;;;;;15.80;2.92;;;;;;;;;;4979047;28;20504;-46
2023/12/19 00:03:10;;;;;;;12.93;2.07;;;;;;;;;;4970389;28;20042;-50
2023/12/19 00:05:40;;;;;;;11.63;2.70;;;;;;;;;;4974657;28;20103;-46
2023/12/19 00:08:08;;;;;;;18.50;2.78;;;;;;;;;;4975066;28;20078;-47
2023/12/19 00:10:36;;;;;;;14.73;2.50;;;;;;;;;;4985148;28;20049;-48
2023/12/19 00:13:03;;;;;;;14.52;3.30;;;;;;;;;;4971259;28;20046;-48
2023/12/19 00:15:31;;;;;;;21.67;2.77;;;;;;;;;;4980740;28;20050;-50
2023/12/19 00:17:59;;;;;;;20.33;2.00;;;;;;;;;;4965906;28;20588;-48
2023/12/19 00:20:28;;;;;;;16.35;2.55;;;;;;;;;;4974224;28;20065;-46
2023/12/19 00:22:57;;;;;;;13.43;3.13;;;;;;;;;;4969772;28;20113;-46
2023/12/19 00:25:26;;;;;;;15.45;2.63;;;;;;;;;;4975842;28;20416;-49
2023/12/19 00:27:56;;;;;;;18.00;2.80;;;;;;;;;;4968313;28;20041;-45
2023/12/19 00:30:24;;;;;;;12.00;2.92;;;;;;;;;;4968042;28;20145;-46
2023/12/19 00:32:52;;;;;;;16.42;3.03;;;;;;;;;;4978624;28;20052;-49
2023/12/19 00:35:19;;;;;;;16.25;2.92;;;;;;;;;;4969219;28;20081;-49
2023/12/19 00:37:47;;;;;;;16.35;2.85;;;;;;;;;;4984210;28;20624;-47
2023/12/19 00:40:17;;;;;;;22.77;2.77;;;;;;;;;;4962648;28;20400;-45
2023/12/19 00:42:44;;;;;;;11.23;2.15;;;;;;;;;;4979501;28;20056;-48
2023/12/19 00:45:14;;;;;;;16.95;2.65;;;;;;;;;;4976280;28;20529;-48
2023/12/19 00:47:42;;;;;;;16.27;2.58;;;;;;;;;;4967622;28;20050;-48
2023/12/19 00:50:10;;;;;;;12.18;2.80;;;;;;;;;;4989618;28;20237;-48
2023/12/19 00:52:37;;;;;;;20.27;2.93;;;;;;;;;;4967046;28;20100;-47
2023/12/19 00:55:06;;;;;;;10.40;2.17;;;;;;;;;;4983592;28;20048;-47
2023/12/19 00:57:35;;;;;;;8.68;1.83;;;;;;;;;;4965162;28;20042;-49
2023/12/19 01:00:03;;;;;;;13.45;2.45;;;;;;;;;;4976654;28;20444;-49
2023/12/19 01:02:32;;;;;;;12.73;2.70;;;;;;;;;;4963549;28;20722;-45
2023/12/19 01:04:59;;;;;;;12.83;2.83;;;;;;;;;;4975182;28;20049;-46
2023/12/19 01:07:27;;;;;;;13.70;2.45;;;;;;;;;;4976870;28;20046;-46
2023/12/19 01:09:55;;;;;;;13.15;2.55;;;;;;;;;;4976171;28;20047;-47
2023/12/19 01:12:23;;;;;;;12.55;2.40;;;;;;;;;;4988633;28;20049;-46
2023/12/19 01:14:52;;;;;;;11.68;2.60;;;;;;;;;;4975460;28;20034;-49
2023/12/19 01:17:20;;;;;;;11.63;2.30;;;;;;;;;;4972536;28;20123;-48
2023/12/19 01:19:48;;;;;;;11.40;2.03;;;;;;;;;;4965545;28;20508;-48
2023/12/19 01:22:19;;;;;;;12.68;2.08;;;;;;;;;;4980696;28;20092;-47
2023/12/19 01:24:47;;;;;;;12.15;2.15;;;;;;;;;;4983301;28;20116;-45
2023/12/19 01:27:15;;;;;;;13.38;1.85;;;;;;;;;;4955449;28;20046;-46
2023/12/19 01:29:42;;;;;;;7.63;1.90;;;;;;;;;;4980099;28;20057;-48
2023/12/19 01:32:11;;;;;;;11.45;2.47;;;;;;;;;;4977064;28;20053;-50
2023/12/19 01:34:39;;;;;;;11.98;2.28;;;;;;;;;;4973617;28;20057;-49
2023/12/19 01:37:07;;;;;;;10.65;2.17;;;;;;;;;;4989400;28;20496;-47
2023/12/19 01:39:36;;;;;;;13.45;2.17;;;;;;;;;;4970097;28;20510;-48
2023/12/19 01:42:04;;;;;;;10.23;2.00;;;;;;;;;;4968125;28;20038;-47
2023/12/19 01:44:33;;;;;;;10.43;2.25;;;;;;;;;;4979958;28;20034;-47
2023/12/19 01:47:00;;;;;;;9.98;2.17;;;;;;;;;;4974682;28;20045;-46
2023/12/19 01:49:29;;;;;;;9.75;2.08;;;;;;;;;;4973912;28;20050;-48
2023/12/19 01:51:58;;;;;;;13.25;2.00;;;;;;;;;;4985252;28;20034;-46
2023/12/19 01:54:26;;;;;;;10.57;2.10;;;;;;;;;;4966780;28;20604;-47
2023/12/19 01:56:53;;;;;;;11.15;1.90;;;;;;;;;;4976993;28;20046;-47
2023/12/19 01:59:21;;;;;;;12.77;2.45;;;;;;;;;;4974845;28;20781;-48
2023/12/19 02:01:49;;;;;;;9.35;2.15;;;;;;;;;;4977619;28;20042;-46
2023/12/19 02:04:17;;;;;;;10.55;2.35;;;;;;;;;;4967917;28;20512;-46
2023/12/19 02:06:50;;;;;;;10.03;2.30;;;;;;;;;;4969736;28;20688;-46
2023/12/19 02:09:18;;;;;;;7.63;1.98;;;;;;;;;;4972635;28;20638;-48
2023/12/19 02:11:46;;;;;;;8.30;2.42;;;;;;;;;;4971454;28;20052;-51
2023/12/19 02:14:14;;;;;;;10.50;1.90;;;;;;;;;;4972946;28;20709;-51
2023/12/19 02:16:42;;;;;;;8.77;2.03;;;;;;;;;;4973157;28;20049;-46
2023/12/19 02:19:12;;;;;;;11.97;2.27;;;;;;;;;;4968095;28;20046;-47
2023/12/19 02:21:40;;;;;;;9.43;1.98;;;;;;;;;;4982898;28;20496;-48
2023/12/19 02:24:10;;;;;;;13.32;2.28;;;;;;;;;;4972671;28;20129;-47
2023/12/19 02:26:38;;;;;;;13.90;1.60;;;;;;;;;;4976795;28;20892;-46
2023/12/19 02:29:06;;;;;;;6.68;1.55;;;;;;;;;;4976255;28;20038;-46
2023/12/19 02:31:33;;;;;;;7.60;2.00;;;;;;;;;;4980079;28;20034;-47
2023/12/19 02:34:01;;;;;;;6.20;1.67;;;;;;;;;;4975499;28;20267;-48
2023/12/19 02:36:29;;;;;;;10.63;1.83;;;;;;;;;;4972000;28;20184;-49
2023/12/19 02:38:57;;;;;;;8.68;1.52;;;;;;;;;;4952664;28;20251;-47
2023/12/19 02:41:27;;;;;;;8.98;2.10;;;;;;;;;;4984453;28;20129;-48
2023/12/19 02:43:54;;;;;;;12.90;2.00;;;;;;;;;;4969576;28;20041;-49
2023/12/19 02:46:22;;;;;;;7.85;1.75;;;;;;;;;;4975530;28;20053;-50
2023/12/19 02:48:51;;;;;;;8.57;2.90;;;;;;;;;;4977281;28;20096;-46
2023/12/19 02:51:19;;;;;;;9.90;2.42;;;;;;;;;;4981861;28;20041;-48
2023/12/19 02:53:47;;;;;;;8.07;2.30;;;;;;;;;;4972757;28;20490;-47
2023/12/19 02:56:15;;;;;;;8.40;1.73;;;;;;;;;;4984115;28;20057;-47
2023/12/19 02:58:45;;;;;;;10.23;1.85;;;;;;;;;;4974097;28;20735;-47
2023/12/19 03:01:13;;;;;;;10.80;1.98;;;;;;;;;;4966748;28;20034;-46
2023/12/19 03:03:41;;;;;;;9.63;2.60;;;;;;;;;;4987865;28;20050;-48
2023/12/19 03:06:09;;;;;;;9.75;2.50;;;;;;;;;;4975009;28;20045;-50
2023/12/19 03:08:37;;;;;;;14.40;2.63;;;;;;;;;;4953205;28;20247;-48
2023/12/19 03:11:05;;;;;;;10.80;2.35;;;;;;;;;;4982875;28;20038;-47
2023/12/19 03:13:33;;;;;;;10.45;2.55;;;;;;;;;;4977917;28;20128;-50
2023/12/19 03:16:02;;;;;;;12.52;2.17;;;;;;;;;;4959730;28;20046;-45
2023/12/19 03:18:30;;;;;;;15.57;2.83;;;;;;;;;;4990818;28;20050;-46
2023/12/19 03:21:01;;;;;;;10.17;2.07;;;;;;;;;;4970151;28;20065;-49
2023/12/19 03:23:29;;;;;;;12.23;2.72;;;;;;;;;;4988750;28;20096;-47
2023/12/19 03:25:57;;;;;;;8.27;2.20;;;;;;;;;;4981020;28;20069;-46
2023/12/19 03:28:24;;;;;;;10.93;2.33;;;;;;;;;;4974135;28;20045;-46
2023/12/19 03:30:52;;;;;;;8.23;2.75;;;;;;;;;;4986340;28;20049;-49
2023/12/19 03:33:21;;;;;;;9.07;2.17;;;;;;;;;;4972826;28;20042;-45
2023/12/19 03:35:49;;;;;;;11.90;2.33;;;;;;;;;;4981973;28;20247;-46
2023/12/19 03:38:17;;;;;;;10.20;2.30;;;;;;;;;;4982695;28;20587;-45
2023/12/19 03:40:45;;;;;;;9.20;1.90;;;;;;;;;;4947701;28;21045;-46
2023/12/19 03:43:13;;;;;;;11.23;2.58;;;;;;;;;;4987766;28;20034;-46
2023/12/19 03:45:41;;;;;;;9.40;2.37;;;;;;;;;;4939082;28;20038;-48
2023/12/19 03:48:09;;;;;;;11.25;2.60;;;;;;;;;;4982880;28;20045;-51
2023/12/19 03:50:39;;;;;;;9.65;2.42;;;;;;;;;;4983408;28;20461;-51
2023/12/19 03:53:07;;;;;;;11.07;2.55;;;;;;;;;;4975096;28;20038;-48
2023/12/19 03:55:35;;;;;;;12.35;2.40;;;;;;;;;;4986862;28;20046;-50
2023/12/19 03:58:03;;;;;;;11.93;2.53;;;;;;;;;;4978293;28;20099;-48
2023/12/19 04:00:31;;;;;;;19.42;3.58;;;;;;;;;;4976577;28;20057;-46
2023/12/19 04:03:08;;;;;;;10.68;2.15;;;;;;;;;;4980365;28;20044;-50
2023/12/19 04:05:42;;;;;;;12.30;2.85;;;;;;;;;;4967021;28;20041;-49
2023/12/19 04:08:10;;;;;;;13.93;2.80;;;;;;;;;;4981418;28;20472;-48
2023/12/19 04:10:37;;;;;;;13.30;3.07;;;;;;;;;;4979258;28;20049;-46
2023/12/19 04:13:05;;;;;;;8.68;2.55;;;;;;;;;;4983947;28;20771;-47
2023/12/19 04:15:33;;;;;;;10.43;2.38;;;;;;;;;;4956617;28;20042;-48
2023/12/19 04:18:00;;;;;;;10.32;2.35;;;;;;;;;;4964394;28;20056;-46
2023/12/19 04:20:28;;;;;;;10.43;2.42;;;;;;;;;;4964797;28;20542;-46
2023/12/19 04:22:57;;;;;;;10.57;2.63;;;;;;;;;;4982710;28;20041;-49
2023/12/19 04:25:25;;;;;;;9.18;2.50;;;;;;;;;;4968495;28;20042;-45
2023/12/19 04:27:53;;;;;;;10.43;2.30;;;;;;;;;;4989986;28;20041;-46
2023/12/19 04:30:20;;;;;;;14.27;2.35;;;;;;;;;;4965574;28;20065;-46
2023/12/19 04:32:48;;;;;;;7.65;1.85;;;;;;;;;;4981067;28;20076;-46
2023/12/19 04:35:17;;;;;;;10.60;2.40;;;;;;;;;;4979056;28;20052;-47
2023/12/19 04:37:44;;;;;;;9.40;1.90;;;;;;;;;;4946060;28;20052;-47
2023/12/19 04:40:14;;;;;;;8.73;2.90;;;;;;;;;;4975937;28;20042;-46
2023/12/19 04:42:42;;;;;;;9.77;2.15;;;;;;;;;;4980987;28;20120;-45
2023/12/19 04:45:10;;;;;;;11.15;2.28;;;;;;;;;;4971822;28;20041;-46
2023/12/19 04:47:39;;;;;;;8.83;2.40;;;;;;;;;;4982208;28;20121;-46
2023/12/19 04:50:08;;;;;;;9.73;2.47;;;;;;;;;;4980818;28;20500;-45
2023/12/19 04:52:36;;;;;;;10.98;3.13;;;;;;;;;;4977861;28;20411;-48
2023/12/19 04:55:04;;;;;;;8.07;2.00;;;;;;;;;;4977195;28;20305;-46
2023/12/19 04:57:33;;;;;;;9.43;2.08;;;;;;;;;;4964784;28;20049;-48
2023/12/19 05:00:01;;;;;;;6.80;1.97;;;;;;;;;;4974629;28;20041;-45
2023/12/19 05:02:28;;;;;;;8.05;1.90;;;;;;;;;;4977835;28;20964;-46
2023/12/19 05:04:57;;;;;;;6.60;1.80;;;;;;;;;;4969601;28;20129;-47
2023/12/19 05:07:25;;;;;;;6.05;1.48;;;;;;;;;;4979166;28;20096;-48
2023/12/19 05:09:54;;;;;;;9.30;1.98;;;;;;;;;;4975382;28;20056;-49
2023/12/19 05:12:24;;;;;;;7.37;1.30;;;;;;;;;;4973192;28;20586;-47
2023/12/19 05:14:53;;;;;;;5.78;1.27;;;;;;;;;;4951825;28;20265;-49
2023/12/19 05:17:20;;;;;;;6.82;1.70;;;;;;;;;;4989466;28;20057;-46
2023/12/19 05:19:48;;;;;;;4.75;1.23;;;;;;;;;;4969955;28;20042;-46
2023/12/19 05:22:22;;;;;;;4.40;1.23;;;;;;;;;;4977606;28;20034;-46
2023/12/19 05:24:50;;;;;;;6.13;1.50;;;;;;;;;;4968284;28;20485;-47
2023/12/19 05:27:18;;;;;;;5.32;1.50;;;;;;;;;;4975400;28;20048;-45
2023/12/19 05:29:45;;;;;;;7.38;1.65;;;;;;;;;;4973313;28;20046;-46
2023/12/19 05:32:15;;;;;;;4.80;1.73;;;;;;;;;;4970374;28;20493;-45
2023/12/19 05:34:43;;;;;;;6.55;1.10;;;;;;;;;;4972887;28;20041;-46
2023/12/19 05:37:11;;;;;;;4.57;1.40;;;;;;;;;;4983149;28;20084;-51
2023/12/19 05:39:41;;;;;;;5.80;1.52;;;;;;;;;;4972478;28;20057;-47
2023/12/19 05:42:13;;;;;;;5.05;1.30;;;;;;;;;;4984034;28;20042;-49
2023/12/19 05:44:41;;;;;;;5.25;1.40;;;;;;;;;;4975666;28;20404;-47
2023/12/19 05:47:08;;;;;;;6.63;1.50;;;;;;;;;;4975970;28;20477;-49
2023/12/19 05:49:37;;;;;;;4.70;1.63;;;;;;;;;;4969195;28;20397;-48
2023/12/19 05:52:06;;;;;;;4.40;1.20;;;;;;;;;;4958644;28;20037;-47
2023/12/19 05:54:34;;;;;;;5.45;1.50;;;;;;;;;;4962564;28;20424;-48
2023/12/19 05:57:02;;;;;;;4.88;1.13;;;;;;;;;;4959177;28;20046;-47
2023/12/19 05:59:29;;;;;;;7.07;1.45;;;;;;;;;;4961728;28;20048;-47
2023/12/19 06:02:00;;;;;;;6.90;1.40;;;;;;;;;;4972322;28;20057;-48
2023/12/19 06:04:27;;;;;;;4.05;1.20;;;;;;;;;;4970521;28;20046;-46
2023/12/19 06:07:01;;;;;;;6.47;1.55;;;;;;;;;;4965151;28;20634;-47
2023/12/19 06:09:28;;;;;;;5.75;1.60;;;;;;;;;;4983284;28;20089;-48
2023/12/19 06:11:56;;;;;;;4.50;1.70;;;;;;;;;;4955117;28;20048;-46
2023/12/19 06:14:24;;;;;;;4.50;1.40;;;;;;;;;;4957973;28;20053;-48
2023/12/19 06:16:52;;;;;;;5.68;1.80;;;;;;;;;;4981996;28;20108;-51
2023/12/19 06:19:19;;;;;;;5.03;1.58;;;;;;;;;;4960137;28;20662;-49
2023/12/19 06:21:48;;;;;;;5.78;1.92;;;;;;;;;;4988878;28;20458;-48
2023/12/19 06:24:17;;;;;;;9.52;1.92;;;;;;;;;;4959371;28;20573;-47
2023/12/19 06:26:49;;;;;;;6.10;1.93;;;;;;;;;;4974123;28;20101;-47
2023/12/19 06:29:17;;;;;;;8.68;1.85;;;;;;;;;;4977334;28;20049;-49
2023/12/19 06:31:45;;;;;;;7.13;1.98;;;;;;;;;;4955827;28;20050;-48
2023/12/19 06:34:13;;;;;;;7.05;2.03;;;;;;;;;;4978650;28;20069;-47
2023/12/19 06:36:41;;;;;;;7.28;2.03;;;;;;;;;;4968297;28;20133;-47
2023/12/19 06:39:09;;;;;;;7.00;2.07;;;;;;;;;;4982645;28;20088;-46
2023/12/19 06:41:38;;;;;;;6.55;1.88;;;;;;;;;;4962614;28;20240;-48
2023/12/19 06:44:06;;;;;;;6.90;2.30;;;;;;;;;;4995732;28;20042;-50
2023/12/19 06:46:33;;;;;;;7.10;2.35;;;;;;;;;;4966711;28;20281;-47
2023/12/19 06:49:01;;;;;;;7.72;2.42;;;;;;;;;;4975011;28;20041;-48
2023/12/19 06:51:31;;;;;;;5.90;2.43;;;;;;;;;;4984326;28;20068;-47
2023/12/19 06:53:59;;;;;;;7.22;2.35;;;;;;;;;;4969485;28;20049;-48
2023/12/19 06:56:29;;;;;;;7.25;2.15;;;;;;;;;;4966255;28;20056;-49
2023/12/19 06:59:00;;;;;;;7.65;2.92;;;;;;;;;;4930446;28;20253;-48
2023/12/19 07:01:28;;;;;;;8.93;2.92;;;;;;;;;;4956518;28;20867;-46
2023/12/19 07:03:56;;;;;;;5.97;2.67;;;;;;;;;;4972089;28;20401;-46
2023/12/19 07:06:25;;;;;;;8.35;2.60;;;;;;;;;;4966068;28;20042;-46
2023/12/19 07:08:52;;;;;;;6.85;2.40;;;;;;;;;;4971987;28;20041;-48
2023/12/19 07:11:21;;;;;;;9.52;2.70;;;;;;;;;;4979377;28;20050;-48
2023/12/19 07:13:49;;;;;;;9.88;2.70;;;;;;;;;;4963572;28;20037;-48
2023/12/19 07:16:18;;;;;;;6.77;2.07;;;;;;;;;;4969508;28;20061;-48
2023/12/19 07:18:47;;;;;;;6.70;2.40;;;;;;;;;;4976622;28;20050;-49
2023/12/19 07:21:19;;;;;;;6.32;1.77;;;;;;;;;;4967876;28;20408;-48
2023/12/19 07:23:47;;;;;;;7.10;1.38;;;;;;;;;;4993962;28;20400;-50
2023/12/19 07:26:21;;;;;;;9.88;2.20;;;;;;;;;;4974948;28;20054;-48
2023/12/19 07:28:50;;;;;;;6.90;2.30;;;;;;;;;;4957624;28;20042;-48
2023/12/19 07:31:22;;;;;;;7.10;2.17;;;;;;;;;;4977679;28;20049;-48
2023/12/19 07:33:51;;;;;;;4.03;0.80;;;;;;;;;;4965177;28;20085;-47
2023/12/19 07:36:20;;;;;;;2.72;0.63;;;;;;;;;;4968905;28;20053;-50
2023/12/19 07:38:48;;;;;;;2.65;0.50;;;;;;;;;;4963285;28;20037;-47
2023/12/19 07:41:16;;;;;;;2.50;0.40;;;;;;;;;;4968166;28;20128;-47
2023/12/19 07:43:43;;;;;;;2.42;0.28;;;;;;;;;;4966984;28;20045;-46
2023/12/19 07:46:11;;;;;;;4.63;0.40;;;;;;;;;;4979858;28;20062;-52
2023/12/19 07:48:41;;;;;;;4.30;0.20;;;;;;;;;;4965667;28;20663;-48
2023/12/19 07:51:09;;;;;;;2.97;0.30;;;;;;;;;;4981361;28;20038;-52
2023/12/19 07:53:36;;;;;;;3.17;0.40;;;;;;;;;;4971902;28;20316;-50
2023/12/19 07:56:07;;;;;;;4.82;0.52;;;;;;;;;;4982144;28;20129;-50
2023/12/19 07:58:34;;;;;;;2.80;0.45;;;;;;;;;;4972775;28;20084;-52
2023/12/19 08:01:02;;;;;;;2.28;0.40;;;;;;;;;;4970369;28;20049;-48
2023/12/19 08:03:30;;;;;;;2.22;0.30;;;;;;;;;;4972200;28;20057;-52
2023/12/19 08:05:59;;;;;;;4.17;0.40;;;;;;;;;;4957275;28;20057;-50
2023/12/19 08:08:27;;;;;;;7.18;0.45;;;;;;;;;;4971176;28;20052;-49
2023/12/19 08:10:56;;;;;;;3.00;0.28;;;;;;;;;;4974332;28;20469;-48
2023/12/19 08:13:24;;;;;;;2.83;0.50;;;;;;;;;;4968701;28;20044;-51
2023/12/19 08:16:09;;;;;;;3.53;0.57;;;;;;;;;;4960720;28;20045;-47
2023/12/19 08:18:37;;;;;;;2.90;0.63;;;;;;;;;;4975228;28;20560;-51
2023/12/19 08:21:06;;;;;;;3.35;0.70;;;;;;;;;;4969844;28;20558;-48
2023/12/19 08:23:35;;;;;;;3.38;0.50;;;;;;;;;;4973843;28;20053;-48
2023/12/19 08:26:02;;;;;;;2.58;0.40;;;;;;;;;;4985961;28;20236;-49
2023/12/19 08:28:30;;;;;;;2.45;0.40;;;;;;;;;;4985059;28;20042;-49
2023/12/19 08:30:58;;;;;;;2.70;0.47;;;;;;;;;;4979191;28;20034;-48
2023/12/19 08:33:26;;;;;;;4.97;0.60;;;;;;;;;;4970160;28;21605;-48
2023/12/19 08:35:54;;;;;;;2.92;0.60;;;;;;;;;;4988263;28;20499;-47
2023/12/19 08:38:23;;;;;;;3.10;0.40;;;;;;;;;;4964468;28;20045;-51
2023/12/19 08:40:51;;;;;;;3.10;0.43;;;;;;;;;;4987551;28;20046;-48
2023/12/19 08:43:19;;;;;;;3.17;0.40;;;;;;;;;;4969833;28;20045;-47
2023/12/19 08:45:48;;;;;;;2.80;0.68;;;;;;;;;;4980254;28;20139;-46
2023/12/19 08:48:24;;;;;;;3.95;0.60;;;;;;;;;;4965735;28;20122;-49
2023/12/19 08:50:52;;;;;;;3.40;0.90;;;;;;;;;;4969122;28;21855;-47
2023/12/19 08:53:20;;;;;;;3.47;0.55;;;;;;;;;;4976801;28;20519;-47
2023/12/19 08:55:50;;;;;;;2.80;0.60;;;;;;;;;;4983014;28;20247;-51
2023/12/19 08:58:19;;;;;;;2.97;0.50;;;;;;;;;;4957312;28;20049;-48
2023/12/19 09:00:46;;;;;;;3.75;0.50;;;;;;;;;;5000068;28;20052;-50
2023/12/19 09:03:14;;;;;;;2.83;0.60;;;;;;;;;;4960650;28;20053;-47
2023/12/19 09:05:42;;;;;;;5.80;1.30;;;;;;;;;;4977688;28;20057;-49
2023/12/19 09:08:13;;;;;;;6.60;1.27;;;;;;;;;;4971831;28;20468;-47
2023/12/19 09:10:40;;;;;;;3.75;0.82;;;;;;;;;;4974049;28;20049;-49
2023/12/19 09:13:10;;;;;;;3.13;0.60;;;;;;;;;;4977049;28;20060;-52
2023/12/19 09:15:38;;;;;;;4.55;0.80;;;;;;;;;;4973940;28;20531;-47
2023/12/19 09:18:06;;;;;;;3.42;0.50;;;;;;;;;;4974775;28;20473;-49
2023/12/19 09:20:34;;;;;;;3.23;0.40;;;;;;;;;;4980501;28;20038;-47
2023/12/19 09:23:02;;;;;;;3.55;0.50;;;;;;;;;;4965334;28;20038;-51
2023/12/19 09:25:30;;;;;;;3.25;0.45;;;;;;;;;;4957085;28;20061;-49
2023/12/19 09:27:58;;;;;;;3.97;0.50;;;;;;;;;;4975426;28;20129;-52
2023/12/19 09:30:27;;;;;;;2.80;0.40;;;;;;;;;;4944790;28;20044;-49
2023/12/19 09:32:54;;;;;;;3.37;0.53;;;;;;;;;;4956204;28;20038;-50
2023/12/19 09:35:22;;;;;;;4.35;0.70;;;;;;;;;;4950000;28;20049;-47
2023/12/19 09:37:50;;;;;;;3.22;0.60;;;;;;;;;;4963713;28;20116;-49
2023/12/19 09:40:19;;;;;;;3.65;0.60;;;;;;;;;;4957489;28;20701;-48
2023/12/19 09:42:47;;;;;;;6.72;1.58;;;;;;;;;;4972495;28;20153;-48
2023/12/19 09:45:19;;;;;;;6.40;1.43;;;;;;;;;;4964877;28;20046;-49
2023/12/19 09:47:53;;;;;;;5.57;1.30;;;;;;;;;;4969209;28;20042;-46
2023/12/19 09:50:22;;;;;;;5.22;0.98;;;;;;;;;;4950185;28;20157;-48
2023/12/19 09:52:50;;;;;;;4.57;0.90;;;;;;;;;;4964622;28;20054;-49
2023/12/19 09:55:18;;;;;;;3.22;0.68;;;;;;;;;;4965765;28;20041;-48
2023/12/19 09:57:47;;;;;;;4.80;0.77;;;;;;;;;;4959963;28;20523;-47
2023/12/19 10:00:15;;;;;;;4.22;0.70;;;;;;;;;;4959591;28;20092;-51
2023/12/19 10:02:43;;;;;;;3.60;0.80;;;;;;;;;;4965260;28;20530;-52
2023/12/19 10:05:13;;;;;;;3.88;0.90;;;;;;;;;;4964015;28;20104;-47
2023/12/19 10:07:41;;;;;;;3.00;0.50;;;;;;;;;;4948478;28;20052;-47
2023/12/19 10:10:11;;;;;;;4.57;0.73;;;;;;;;;;4945525;28;20427;-50
2023/12/19 10:12:47;;;;;;;3.97;0.73;;;;;;;;;;4949180;28;20690;-51
2023/12/19 10:15:25;;;;;;;5.60;0.80;;;;;;;;;;4959099;28;20785;-50
2023/12/19 10:18:12;;;;;;;6.35;1.10;;;;;;;;;;4964360;28;20077;-46
2023/12/19 10:20:42;;;;;;;4.97;0.80;;;;;;;;;;4956381;28;21520;-49
2023/12/19 10:23:10;;;;;;;5.23;1.10;;;;;;;;;;4968925;28;20131;-49
2023/12/19 10:25:38;;;;;;;4.53;0.70;;;;;;;;;;4942449;28;20053;-51
2023/12/19 10:28:19;;;;;;;4.80;0.70;;;;;;;;;;4963434;28;20108;-52
2023/12/19 10:30:47;;;;;;;4.43;0.50;;;;;;;;;;4955549;28;20038;-50
2023/12/19 10:33:15;;;;;;;4.50;0.88;;;;;;;;;;4948075;28;20481;-49
2023/12/19 10:35:45;;;;;;;3.53;0.77;;;;;;;;;;4962178;28;20089;-50
2023/12/19 10:38:14;;;;;;;4.47;0.80;;;;;;;;;;4952761;28;20835;-49
2023/12/19 10:40:42;;;;;;;5.70;1.13;;;;;;;;;;4961390;28;20053;-47
2023/12/19 10:43:10;;;;;;;4.70;1.02;;;;;;;;;;4944069;28;20045;-47
2023/12/19 10:45:44;;;;;;;4.55;0.80;;;;;;;;;;4949575;28;20046;-51
2023/12/19 10:48:13;;;;;;;4.47;0.60;;;;;;;;;;4874812;28;21000;-48
2023/12/19 10:50:41;;;;;;;3.58;0.77;;;;;;;;;;4936506;28;20049;-49
2023/12/19 10:53:10;;;;;;;6.45;1.00;;;;;;;;;;4947506;28;20413;-51
2023/12/19 10:55:43;;;;;;;5.85;1.25;;;;;;;;;;4963257;28;20563;-51
2023/12/19 10:58:13;;;;;;;3.97;1.05;;;;;;;;;;4953339;28;20580;-51
2023/12/19 11:00:43;;;;;;;6.37;1.30;;;;;;;;;;4948612;28;20056;-49
2023/12/19 11:03:16;;;;;;;4.65;1.10;;;;;;;;;;4968437;28;20042;-52
2023/12/19 11:05:45;;;;;;;4.85;1.30;;;;;;;;;;4950788;28;20049;-51
2023/12/19 11:08:19;;;;;;;5.57;1.33;;;;;;;;;;4950943;28;21460;-50
2023/12/19 11:10:50;;;;;;;4.70;1.17;;;;;;;;;;4958246;28;21579;-50
2023/12/19 11:13:18;;;;;;;5.43;1.33;;;;;;;;;;4979740;28;20504;-51
2023/12/19 11:15:50;;;;;;;4.60;1.10;;;;;;;;;;4976976;28;20100;-49
2023/12/19 11:18:22;;;;;;;5.40;1.00;;;;;;;;;;4978517;28;20168;-47
2023/12/19 11:20:53;;;;;;;6.10;1.58;;;;;;;;;;4971601;28;20042;-49
2023/12/19 11:23:32;;;;;;;7.50;2.10;;;;;;;;;;4981529;28;20485;-51
2023/12/19 11:26:03;;;;;;;6.20;1.50;;;;;;;;;;4981371;28;20617;-51
2023/12/19 11:28:36;;;;;;;8.57;1.60;;;;;;;;;;4966384;28;20133;-51
2023/12/19 11:31:04;;;;;;;6.60;1.58;;;;;;;;;;4978426;28;20041;-52
2023/12/19 11:33:37;;;;;;;6.80;1.30;;;;;;;;;;4962377;28;20046;-51
2023/12/19 11:36:11;;;;;;;3.78;1.02;;;;;;;;;;4977219;28;20100;-48
2023/12/19 11:38:41;;;;;;;3.77;0.63;;;;;;;;;;4967638;28;20066;-50
2023/12/19 11:41:11;;;;;;;4.13;0.63;;;;;;;;;;4981841;28;20045;-50
2023/12/19 11:43:50;;;;;;;4.30;0.70;;;;;;;;;;4978143;28;20038;-49
2023/12/19 11:46:19;;;;;;;4.20;0.70;;;;;;;;;;4973309;28;20772;-49
2023/12/19 11:48:50;;;;;;;4.10;0.85;;;;;;;;;;4971200;28;20037;-51
2023/12/19 11:51:35;;;;;;;3.73;0.70;;;;;;;;;;4978328;28;20038;-51
2023/12/19 11:54:10;;;;;;;2.55;0.40;;;;;;;;;;4979023;28;20518;-48
2023/12/19 11:56:39;;;;;;;4.32;0.63;;;;;;;;;;4974980;28;20133;-49
2023/12/19 11:59:08;;;;;;;6.07;0.50;;;;;;;;;;4974107;28;20038;-53
2023/12/19 12:01:38;;;;;;;3.25;0.60;;;;;;;;;;4977539;28;20064;-51
2023/12/19 12:04:06;;;;;;;4.40;0.93;;;;;;;;;;4981531;28;20037;-48
2023/12/19 12:06:35;;;;;;;3.67;0.70;;;;;;;;;;4976841;28;20084;-49
2023/12/19 12:09:05;;;;;;;4.07;0.63;;;;;;;;;;4984583;28;20050;-51
2023/12/19 12:11:47;;;;;;;5.80;0.60;;;;;;;;;;4970685;28;20407;-51
2023/12/19 12:14:16;;;;;;;3.20;0.50;;;;;;;;;;4972376;28;20049;-49
2023/12/19 12:16:43;;;;;;;3.27;0.60;;;;;;;;;;4965415;28;20057;-52
2023/12/19 12:19:12;;;;;;;6.00;0.60;;;;;;;;;;4971685;28;20123;-49
2023/12/19 12:21:48;;;;;;;2.70;0.50;;;;;;;;;;4971129;28;20524;-47
2023/12/19 12:24:17;;;;;;;2.75;0.57;;;;;;;;;;4967241;28;20049;-52
2023/12/19 12:26:51;;;;;;;2.53;0.43;;;;;;;;;;4970753;28;20206;-50
2023/12/19 12:29:19;;;;;;;4.53;0.70;;;;;;;;;;4966007;28;20045;-49
2023/12/19 12:31:47;;;;;;;3.45;0.63;;;;;;;;;;4967265;28;21134;-51
2023/12/19 12:34:16;;;;;;;2.63;0.50;;;;;;;;;;4969235;28;20046;-51
2023/12/19 12:36:47;;;;;;;3.33;0.70;;;;;;;;;;4960207;28;20117;-53
2023/12/19 12:39:35;;;;;;;3.28;0.45;;;;;;;;;;4963645;28;20053;-50
2023/12/19 12:42:05;;;;;;;3.47;0.70;;;;;;;;;;4630873;28;10000494;-50
2023/12/19 12:44:33;;;;;;;3.40;0.60;;;;;;;;;;4962431;28;20615;-50
2023/12/19 12:47:01;;;;;;;2.92;0.50;;;;;;;;;;4969681;28;20501;-50
2023/12/19 12:49:28;;;;;;;2.45;0.43;;;;;;;;;;4969243;28;20045;-51
2023/12/19 12:52:00;;;;;;;3.22;0.50;;;;;;;;;;4954244;28;20085;-51
2023/12/19 12:54:29;;;;;;;4.15;0.40;;;;;;;;;;4977440;28;20042;-51
2023/12/19 12:56:57;;;;;;;5.00;0.50;;;;;;;;;;4968675;28;20058;-48
2023/12/19 12:59:28;;;;;;;3.05;0.50;;;;;;;;;;4968736;28;20094;-50
2023/12/19 13:01:56;;;;;;;3.10;0.40;;;;;;;;;;4962619;28;20057;-52
2023/12/19 13:04:25;;;;;;;2.97;0.50;;;;;;;;;;4966754;28;20046;-52
2023/12/19 13:06:54;;;;;;;3.20;0.68;;;;;;;;;;4971102;28;20046;-52
2023/12/19 13:09:22;;;;;;;3.63;0.70;;;;;;;;;;4966011;28;20042;-53
2023/12/19 13:11:50;;;;;;;4.80;0.50;;;;;;;;;;4961425;28;20879;-50
2023/12/19 13:14:18;;;;;;;3.15;0.50;;;;;;;;;;4973274;28;20053;-49
2023/12/19 13:16:47;;;;;;;2.90;0.40;;;;;;;;;;4953395;28;20066;-50
2023/12/19 13:19:17;;;;;;;3.50;0.60;;;;;;;;;;4972476;28;20119;-51
2023/12/19 13:21:46;;;;;;;3.13;0.50;;;;;;;;;;4610986;28;10000496;-51
2023/12/19 13:24:15;;;;;;;3.28;0.68;;;;;;;;;;4969041;28;20052;-49
2023/12/19 13:26:43;;;;;;;3.20;0.70;;;;;;;;;;4959071;28;20108;-48
2023/12/19 13:29:11;;;;;;;4.25;0.55;;;;;;;;;;4972440;28;20053;-51
2023/12/19 13:31:39;;;;;;;3.17;0.70;;;;;;;;;;4973161;28;20053;-52
2023/12/19 13:34:09;;;;;;;3.30;0.70;;;;;;;;;;4970458;28;20038;-52
2023/12/19 13:36:37;;;;;;;3.30;0.63;;;;;;;;;;4962279;28;21038;-50
2023/12/19 13:39:11;;;;;;;2.97;0.50;;;;;;;;;;4978358;28;20061;-52
2023/12/19 13:41:41;;;;;;;3.05;0.60;;;;;;;;;;4967472;28;20509;-49
2023/12/19 13:44:09;;;;;;;3.28;0.55;;;;;;;;;;4971550;28;22014;-49
2023/12/19 13:46:36;;;;;;;4.33;0.57;;;;;;;;;;4973115;28;20338;-53
2023/12/19 13:49:04;;;;;;;4.10;0.50;;;;;;;;;;4965553;28;20044;-52
2023/12/19 13:51:35;;;;;;;3.70;0.32;;;;;;;;;;4968997;28;20050;-52
2023/12/19 13:54:04;;;;;;;2.53;0.50;;;;;;;;;;4958054;28;20049;-54
2023/12/19 13:56:32;;;;;;;2.15;0.40;;;;;;;;;;4951809;28;20069;-51
2023/12/19 13:59:00;;;;;;;2.67;0.50;;;;;;;;;;4941518;28;20046;-50
2023/12/19 14:01:29;;;;;;;2.58;0.45;;;;;;;;;;4949713;28;20192;-50
2023/12/19 14:03:58;;;;;;;3.83;0.82;;;;;;;;;;4952585;28;20053;-49
2023/12/19 14:06:25;;;;;;;2.95;0.60;;;;;;;;;;4944783;28;20725;-50
2023/12/19 14:08:54;;;;;;;3.65;0.60;;;;;;;;;;4959690;28;20057;-49
2023/12/19 14:11:23;;;;;;;3.80;0.70;;;;;;;;;;4953312;28;20061;-53
2023/12/19 14:13:51;;;;;;;3.33;0.63;;;;;;;;;;4956891;28;20298;-51
2023/12/19 14:16:19;;;;;;;4.85;0.68;;;;;;;;;;4948930;28;20064;-47
2023/12/19 14:18:46;;;;;;;3.42;0.80;;;;;;;;;;4954164;28;20562;-51
2023/12/19 14:21:17;;;;;;;4.00;0.93;;;;;;;;;;4944712;28;20053;-51
2023/12/19 14:23:46;;;;;;;4.03;0.80;;;;;;;;;;4946668;28;21525;-52
2023/12/19 14:26:15;;;;;;;4.68;0.80;;;;;;;;;;4963111;28;20042;-48
2023/12/19 14:28:43;;;;;;;4.28;0.90;;;;;;;;;;4951268;28;20515;-51
2023/12/19 14:31:14;;;;;;;4.57;0.90;;;;;;;;;;4944116;28;20053;-51
2023/12/19 14:33:43;;;;;;;4.65;0.70;;;;;;;;;;4944394;28;20049;-48
2023/12/19 14:36:10;;;;;;;3.57;0.60;;;;;;;;;;4959044;28;20327;-50
2023/12/19 14:38:40;;;;;;;5.75;0.50;;;;;;;;;;4947082;28;21299;-49
2023/12/19 14:41:09;;;;;;;2.28;0.40;;;;;;;;;;4952799;28;20038;-50
2023/12/19 14:43:41;;;;;;;3.47;0.70;;;;;;;;;;4952674;28;20184;-52
2023/12/19 14:46:09;;;;;;;2.75;0.60;;;;;;;;;;4951721;28;20046;-50
2023/12/19 14:48:36;;;;;;;4.10;0.50;;;;;;;;;;4955389;28;21051;-47
2023/12/19 14:51:05;;;;;;;3.25;0.40;;;;;;;;;;4952036;28;20049;-54